Main page
METAR-TAF:

METAR-TAF

Airports :

Szolnok Air Base

Szolnok, Hungary

latitude: 47-07N, longitude: 020-14E, elevation: 89 m

Current weather observation

The report was made 39 minutes ago, at 21:15 UTC
Calm wind
Temperature -3°C
Humidity 100%
Pressure 1028 hPa
Visibility: 0200 m
freezing fog

METAR: LHSN 172115Z 00000KT 0200 R20/0800D FZFG VV002 M03/M03 Q1028 NOSIG RMK RED

Time: 22:54 (21:54 UTC)

Forecast

The report was made 1 hour and 39 minutes ago, at 20:15 UTC
Forecast valid from 17 at 21 UTC to 18 at 06 UTC
Wind 1 kt from variable directions
Visibility: 0150 m
at a height of 200 ft
freezing fog
Probability 40% :
Temporary
from 17 at 21 UTC to 18 at 06 UTC
Visibility: 0050 m
at a height of 100 ft
(light) freezing, drizzle

TAF: LHSN 172015Z 1721/1806 VRB01KT 0150 FZFG VV002 PROB40 TEMPO 1721/1806 0050 -FZDZ VV001

Weather observations and forecasts of more than 4000 airports (METAR and TAF reports).

The available stations are represented by yellow and red dots on the map.

Hover mouse over dot to see the name of the station.

Then click to see weather observations and forecasts.

To change the map : click on the green buttons with a black cross to zoom in, on the green button with a dash to zoom out, or on the green arrows for adjacent maps.


METAR-TAF: